Terminal Aerodrome Forecast
Issued by NWS

Home | Current Version | Previous Version | Text Only | Print | Product List | Glossary On
Versions: 1 2 3 4 5 6 7 8 9 10 11 12 13
000
FTUS46 KPDT 280500
TAFDLS
TAF
KDLS 280532Z 2806/2906 30012KT P6SM SKC
     FM280800 30007KT P6SM FEW250
     FM281800 32014G24KT P6SM SKC
     FM282100 32015G25KT P6SM SKC
     FM290400 30012KT P6SM SKC=

USA.gov is the U.S. government's official web portal to all federal, state and local government web resources and services.